createdAt,value
2023-05-13T00:01:57.670Z,28.03
2023-05-13T00:04:24.364Z,27.13
2023-05-13T00:06:51.643Z,25.03
2023-05-13T00:09:18.377Z,30.20
2023-05-13T00:11:45.307Z,26.23
2023-05-13T00:14:12.261Z,28.43
2023-05-13T00:16:39.348Z,29.83
2023-05-13T00:19:06.309Z,27.27
2023-05-13T00:21:33.827Z,25.83
2023-05-13T00:24:01.252Z,28.43
2023-05-13T00:26:28.028Z,25.77
2023-05-13T00:28:54.772Z,37.07
2023-05-13T00:31:22.233Z,30.00
2023-05-13T00:33:48.992Z,26.40
2023-05-13T00:36:16.338Z,30.83
2023-05-13T00:38:44.425Z,30.23
2023-05-13T00:41:12.295Z,32.17
2023-05-13T00:43:39.404Z,29.27
2023-05-13T00:46:06.443Z,30.40
2023-05-13T00:48:34.675Z,29.50
2023-05-13T00:51:01.843Z,29.63
2023-05-13T00:53:28.584Z,28.97
2023-05-13T00:55:55.774Z,28.63
2023-05-13T00:58:22.531Z,29.63
2023-05-13T01:01:10.520Z,25.80
2023-05-13T01:03:43.271Z,29.60
2023-05-13T01:06:16.333Z,27.60
2023-05-13T01:09:03.236Z,31.70
2023-05-13T01:11:41.731Z,29.70
2023-05-13T01:14:15.016Z,32.73
2023-05-13T01:17:14.496Z,31.17
2023-05-13T01:19:47.056Z,31.07
2023-05-13T01:22:14.298Z,29.53
2023-05-13T01:24:41.785Z,31.83
2023-05-13T01:27:09.105Z,30.63
2023-05-13T01:29:37.927Z,31.27
2023-05-13T01:32:06.581Z,31.23
2023-05-13T01:34:35.164Z,33.40
2023-05-13T01:37:02.087Z,36.67
2023-05-13T01:39:30.603Z,33.60
2023-05-13T01:42:00.332Z,34.77
2023-05-13T01:44:27.614Z,36.53
2023-05-13T01:46:54.504Z,36.13
2023-05-13T01:49:21.748Z,33.53
2023-05-13T01:51:48.516Z,32.63
2023-05-13T01:54:15.409Z,34.73
2023-05-13T01:56:47.765Z,38.33
2023-05-13T01:59:14.903Z,36.50
2023-05-13T02:01:42.517Z,33.87
2023-05-13T02:04:09.273Z,37.93
2023-05-13T02:06:36.536Z,37.83
2023-05-13T02:09:03.589Z,35.37
2023-05-13T02:11:30.763Z,35.83
2023-05-13T02:13:57.605Z,33.93
2023-05-13T02:16:24.386Z,36.47
2023-05-13T02:18:52.133Z,37.60
2023-05-13T02:21:18.959Z,40.47
2023-05-13T02:23:45.764Z,51.23
2023-05-13T02:26:12.528Z,34.23
2023-05-13T02:28:39.421Z,36.60
2023-05-13T02:31:07.023Z,41.60
2023-05-13T02:33:34.089Z,33.87
2023-05-13T02:36:00.843Z,37.80
2023-05-13T02:38:27.580Z,33.73
2023-05-13T02:40:54.610Z,38.37
2023-05-13T02:43:23.598Z,39.23
2023-05-13T02:45:56.479Z,38.13
2023-05-13T02:48:23.542Z,41.93
2023-05-13T02:50:50.948Z,40.43
2023-05-13T02:53:17.660Z,38.93
2023-05-13T02:55:51.265Z,36.00
2023-05-13T02:58:18.512Z,41.40
2023-05-13T03:00:47.452Z,38.13
2023-05-13T03:03:14.251Z,37.00
2023-05-13T03:05:41.309Z,37.93
2023-05-13T03:08:08.408Z,39.17
2023-05-13T03:10:35.275Z,38.70
2023-05-13T03:13:02.357Z,39.80
2023-05-13T03:15:29.308Z,37.67
2023-05-13T03:17:56.377Z,36.23
2023-05-13T03:20:23.830Z,37.97
2023-05-13T03:22:51.134Z,43.53
2023-05-13T03:25:17.916Z,39.77
2023-05-13T03:27:49.044Z,39.50
2023-05-13T03:30:17.831Z,38.63
2023-05-13T03:32:51.375Z,37.30
2023-05-13T03:35:18.201Z,37.90
2023-05-13T03:37:45.063Z,43.67
2023-05-13T03:40:13.339Z,37.73
2023-05-13T03:42:41.474Z,41.83
2023-05-13T03:45:09.266Z,43.53
2023-05-13T03:47:39.456Z,39.17
2023-05-13T03:50:10.712Z,38.60
2023-05-13T03:52:43.989Z,37.17
2023-05-13T03:55:14.930Z,39.03
2023-05-13T03:57:45.165Z,34.73
2023-05-13T04:00:12.782Z,36.97
2023-05-13T04:02:42.185Z,41.97
2023-05-13T04:05:10.430Z,38.10
2023-05-13T04:07:37.672Z,39.67
2023-05-13T04:10:05.042Z,41.73
2023-05-13T04:12:33.409Z,43.47
2023-05-13T04:15:00.813Z,38.13
2023-05-13T04:17:28.869Z,38.97
2023-05-13T04:19:56.015Z,39.80
2023-05-13T04:22:24.949Z,39.60
2023-05-13T04:24:56.695Z,40.53
2023-05-13T04:27:24.345Z,37.63
2023-05-13T04:29:55.578Z,39.30
2023-05-13T04:32:23.310Z,42.37
2023-05-13T04:34:53.703Z,39.37
2023-05-13T04:37:21.063Z,40.30
2023-05-13T04:39:49.186Z,42.17
2023-05-13T04:42:18.184Z,32.87
2023-05-13T04:44:44.969Z,39.20
2023-05-13T04:47:12.136Z,40.00
2023-05-13T04:49:38.847Z,34.57
2023-05-13T04:52:07.107Z,39.00
2023-05-13T04:54:35.988Z,43.00
2023-05-13T04:57:03.508Z,40.13
2023-05-13T04:59:31.116Z,40.30
2023-05-13T05:01:58.509Z,42.00
2023-05-13T05:04:25.915Z,36.63
2023-05-13T05:06:53.606Z,39.17
2023-05-13T05:09:20.447Z,38.40
2023-05-13T05:11:50.666Z,42.80
2023-05-13T05:14:20.321Z,35.97
2023-05-13T05:16:48.934Z,70.00
2023-05-13T05:19:15.705Z,46.97
2023-05-13T05:21:42.734Z,49.83
2023-05-13T05:24:11.040Z,43.33
2023-05-13T05:26:37.747Z,59.93
2023-05-13T05:29:06.260Z,74.97
2023-05-13T05:31:33.505Z,60.13
2023-05-13T05:34:02.441Z,38.47
2023-05-13T05:36:29.716Z,35.53
2023-05-13T05:38:56.478Z,37.20
2023-05-13T05:41:30.038Z,33.47
2023-05-13T05:43:57.299Z,32.57
2023-05-13T05:46:24.174Z,36.97
2023-05-13T05:48:51.552Z,35.37
2023-05-13T05:51:18.786Z,36.83
2023-05-13T05:53:45.542Z,33.97
2023-05-13T05:56:13.619Z,40.23
2023-05-13T05:58:41.397Z,32.17
2023-05-13T06:01:08.754Z,36.50
2023-05-13T06:03:36.250Z,37.83
2023-05-13T06:06:04.212Z,35.20
2023-05-13T06:08:31.048Z,30.30
2023-05-13T06:10:58.434Z,34.03
2023-05-13T06:13:26.526Z,29.93
2023-05-13T06:15:53.307Z,29.47
2023-05-13T06:18:20.176Z,31.33
2023-05-13T06:20:47.329Z,33.73
2023-05-13T06:23:15.086Z,35.30
2023-05-13T06:25:42.093Z,29.03
2023-05-13T06:28:11.271Z,32.00
2023-05-13T06:30:39.403Z,27.73
2023-05-13T06:33:06.316Z,31.97
2023-05-13T06:35:33.145Z,28.00
2023-05-13T06:38:03.102Z,31.63
2023-05-13T06:40:30.020Z,28.23
2023-05-13T06:42:57.083Z,25.73
2023-05-13T06:45:29.692Z,27.70
2023-05-13T06:47:57.416Z,24.03
2023-05-13T06:50:24.911Z,23.47
2023-05-13T06:52:52.231Z,23.63
2023-05-13T06:55:19.883Z,22.80
2023-05-13T06:57:47.329Z,23.73
2023-05-13T07:00:15.607Z,23.03
2023-05-13T07:02:42.658Z,23.23
2023-05-13T07:05:11.788Z,21.33
2023-05-13T07:07:39.722Z,24.33
2023-05-13T07:10:06.700Z,28.17
2023-05-13T07:12:33.739Z,23.10
2023-05-13T07:15:00.558Z,25.00
2023-05-13T07:17:27.542Z,24.07
2023-05-13T07:19:54.898Z,24.63
2023-05-13T07:22:21.648Z,22.37
2023-05-13T07:24:48.719Z,20.30
2023-05-13T07:27:15.560Z,25.97
2023-05-13T07:29:42.299Z,22.63
2023-05-13T07:32:09.127Z,20.67
2023-05-13T07:34:36.089Z,19.43
2023-05-13T07:37:05.255Z,19.67
2023-05-13T07:39:31.996Z,19.60
2023-05-13T07:41:58.885Z,18.57
2023-05-13T07:44:26.181Z,19.00
2023-05-13T07:46:55.272Z,20.70
2023-05-13T07:49:22.133Z,18.60
2023-05-13T07:51:49.257Z,17.67
2023-05-13T07:54:16.011Z,15.47
2023-05-13T07:56:44.332Z,15.77
2023-05-13T07:59:11.688Z,17.63
2023-05-13T08:01:38.399Z,16.57
2023-05-13T08:04:05.807Z,18.10
2023-05-13T08:06:33.086Z,16.67
2023-05-13T08:09:00.022Z,20.10
2023-05-13T08:11:27.546Z,19.33
2023-05-13T08:13:55.580Z,21.27
2023-05-13T08:16:22.407Z,20.07
2023-05-13T08:18:49.388Z,22.53
2023-05-13T08:21:16.312Z,18.77
2023-05-13T08:23:45.911Z,20.17
2023-05-13T08:26:14.197Z,20.07
2023-05-13T08:28:42.275Z,19.23
2023-05-13T08:31:12.173Z,19.47
2023-05-13T08:33:40.721Z,14.80
2023-05-13T08:36:08.147Z,17.33
2023-05-13T08:38:34.994Z,18.40
2023-05-13T08:41:04.961Z,14.70
2023-05-13T08:43:32.969Z,19.33
2023-05-13T08:46:06.420Z,18.90
2023-05-13T08:48:34.085Z,17.37
2023-05-13T08:51:04.805Z,21.80
2023-05-13T08:53:31.880Z,17.13
2023-05-13T08:56:00.394Z,16.90
2023-05-13T08:58:27.911Z,17.83
2023-05-13T09:00:55.086Z,15.37
2023-05-13T09:03:22.013Z,17.30
2023-05-13T09:05:48.778Z,17.47
2023-05-13T09:08:15.832Z,17.17
2023-05-13T09:10:43.338Z,19.57
2023-05-13T09:13:12.520Z,19.70
2023-05-13T09:15:43.228Z,16.77
2023-05-13T09:18:10.224Z,17.77
2023-05-13T09:20:37.203Z,17.93
2023-05-13T09:23:08.264Z,16.40
2023-05-13T09:25:36.544Z,12.43
2023-05-13T09:28:06.183Z,14.03
2023-05-13T09:30:40.283Z,15.90
2023-05-13T09:33:20.378Z,14.20
2023-05-13T09:35:53.725Z,16.63
2023-05-13T09:38:25.210Z,17.52
2023-05-13T09:41:03.371Z,15.82
2023-05-13T09:43:34.044Z,15.32
2023-05-13T09:46:05.519Z,13.25
2023-05-13T09:48:33.622Z,15.35
2023-05-13T09:51:00.439Z,13.48
2023-05-13T09:53:28.792Z,14.85
2023-05-13T09:55:57.796Z,14.93
2023-05-13T09:58:28.053Z,15.13
2023-05-13T10:00:55.505Z,15.20
2023-05-13T10:03:22.540Z,14.25
2023-05-13T10:05:53.675Z,14.27
2023-05-13T10:08:21.767Z,12.43
2023-05-13T10:10:50.668Z,15.40
2023-05-13T10:13:23.513Z,14.32
2023-05-13T10:15:51.577Z,13.07
2023-05-13T10:18:20.858Z,14.13
2023-05-13T10:20:53.250Z,12.43
2023-05-13T10:23:22.626Z,12.18
2023-05-13T10:25:52.001Z,11.43
2023-05-13T10:28:19.584Z,12.15
2023-05-13T10:30:46.600Z,16.17
2023-05-13T10:33:14.055Z,15.93
2023-05-13T10:35:49.979Z,15.48
2023-05-13T10:38:22.513Z,19.45
2023-05-13T10:41:12.155Z,16.80
2023-05-13T10:43:38.995Z,17.13
2023-05-13T10:46:08.374Z,18.10
2023-05-13T10:48:49.489Z,17.13
2023-05-13T10:51:18.803Z,16.73
2023-05-13T10:53:53.979Z,15.82
2023-05-13T10:56:22.485Z,16.60
2023-05-13T10:59:04.233Z,12.68
2023-05-13T11:01:35.120Z,13.25
2023-05-13T11:04:04.841Z,12.88
2023-05-13T11:06:37.280Z,15.30
2023-05-13T11:09:08.916Z,15.88
2023-05-13T11:11:36.654Z,16.15
2023-05-13T11:14:25.012Z,16.77
2023-05-13T11:17:09.414Z,18.00
2023-05-13T11:19:39.003Z,18.48
2023-05-13T11:22:24.313Z,15.93
2023-05-13T11:25:09.299Z,16.88
2023-05-13T11:27:41.529Z,20.00
2023-05-13T11:30:21.955Z,19.95
2023-05-13T11:32:57.018Z,18.55
2023-05-13T11:35:26.524Z,17.45
2023-05-13T11:37:55.532Z,17.73
2023-05-13T11:40:25.226Z,16.15
2023-05-13T11:42:52.979Z,18.85
2023-05-13T11:45:21.637Z,16.98
2023-05-13T11:47:48.701Z,18.60
2023-05-13T11:50:18.773Z,13.18
2023-05-13T11:52:51.434Z,14.45
2023-05-13T11:55:30.132Z,15.15
2023-05-13T11:57:58.940Z,13.70
2023-05-13T12:00:32.977Z,11.35
2023-05-13T12:03:01.739Z,13.95
2023-05-13T12:05:30.373Z,11.90
2023-05-13T12:07:58.479Z,10.50
2023-05-13T12:10:26.856Z,10.82
2023-05-13T12:12:54.391Z,10.48
2023-05-13T12:15:22.418Z,10.40
2023-05-13T12:17:50.299Z,10.98
2023-05-13T12:20:24.599Z,9.75
2023-05-13T12:22:53.552Z,9.05
2023-05-13T12:25:40.082Z,9.05
2023-05-13T12:28:18.139Z,9.95
2023-05-13T12:30:56.355Z,10.98
2023-05-13T12:33:25.592Z,11.65
2023-05-13T12:35:54.609Z,10.40
2023-05-13T12:38:24.136Z,11.07
2023-05-13T12:40:52.469Z,10.70
2023-05-13T12:43:20.342Z,10.52
2023-05-13T12:45:53.522Z,10.32
2023-05-13T12:48:23.802Z,9.70
2023-05-13T12:50:51.495Z,10.77
2023-05-13T12:53:18.592Z,9.63
2023-05-13T12:55:45.312Z,9.20
2023-05-13T12:58:13.609Z,9.00
2023-05-13T13:00:40.597Z,7.47
2023-05-13T13:03:08.080Z,9.07
2023-05-13T13:05:35.413Z,8.57
2023-05-13T13:08:05.234Z,9.32
2023-05-13T13:10:32.470Z,8.52
2023-05-13T13:12:59.206Z,7.95
2023-05-13T13:15:26.124Z,7.20
2023-05-13T13:17:52.883Z,7.10
2023-05-13T13:20:19.728Z,6.85
2023-05-13T13:22:46.508Z,7.03
2023-05-13T13:25:13.923Z,6.93
2023-05-13T13:27:40.929Z,7.65
2023-05-13T13:30:08.136Z,8.02
2023-05-13T13:32:37.692Z,8.00
2023-05-13T13:35:05.670Z,7.25
2023-05-13T13:37:32.768Z,7.15
2023-05-13T13:39:59.944Z,7.05
2023-05-13T13:42:40.175Z,6.53
2023-05-13T13:45:11.248Z,6.93
2023-05-13T13:47:38.570Z,6.18
2023-05-13T13:50:06.425Z,5.85
2023-05-13T13:52:33.169Z,5.72
2023-05-13T13:55:00.656Z,5.80
2023-05-13T13:57:27.944Z,5.53
2023-05-13T13:59:54.693Z,5.32
2023-05-13T14:02:22.020Z,5.22
2023-05-13T14:04:48.916Z,6.10
2023-05-13T14:07:15.912Z,5.05
2023-05-13T14:09:43.097Z,4.88
2023-05-13T14:12:09.865Z,5.20
2023-05-13T14:14:36.601Z,4.70
2023-05-13T14:17:03.516Z,4.25
2023-05-13T14:19:30.613Z,4.53
2023-05-13T14:21:57.400Z,4.90
2023-05-13T14:24:24.543Z,5.15
2023-05-13T14:26:51.365Z,5.00
2023-05-13T14:29:18.313Z,4.47
2023-05-13T14:31:45.567Z,5.13
2023-05-13T14:34:12.395Z,4.90
2023-05-13T14:36:39.387Z,4.75
2023-05-13T14:39:09.134Z,4.60
2023-05-13T14:41:36.002Z,4.10
2023-05-13T14:44:03.203Z,4.47
2023-05-13T14:46:30.682Z,8.20
2023-05-13T14:48:57.412Z,4.00
2023-05-13T14:51:24.336Z,4.05
2023-05-13T14:53:51.060Z,5.55
2023-05-13T14:56:18.217Z,4.00
2023-05-13T14:58:45.149Z,5.05
2023-05-13T15:01:11.947Z,3.80
2023-05-13T15:03:38.834Z,3.22
2023-05-13T15:06:06.382Z,5.10
2023-05-13T15:08:33.491Z,3.97
2023-05-13T15:11:00.991Z,5.65
2023-05-13T15:13:28.875Z,4.82
2023-05-13T15:15:56.070Z,3.92
2023-05-13T15:18:23.031Z,3.10
2023-05-13T15:20:49.898Z,3.40
2023-05-13T15:23:16.615Z,3.97
2023-05-13T15:25:43.905Z,4.07
2023-05-13T15:28:10.761Z,3.33
2023-05-13T15:30:38.839Z,3.25
2023-05-13T15:33:05.782Z,3.33
2023-05-13T15:35:32.646Z,3.15
2023-05-13T15:38:00.243Z,3.20
2023-05-13T15:40:27.108Z,2.97
2023-05-13T15:42:54.331Z,6.75
2023-05-13T15:45:21.326Z,3.20
2023-05-13T15:47:48.202Z,3.33
2023-05-13T15:50:15.674Z,4.65
2023-05-13T15:52:42.423Z,3.53
2023-05-13T15:55:09.178Z,2.47
2023-05-13T15:57:35.982Z,2.70
2023-05-13T16:00:02.827Z,2.30
2023-05-13T16:02:37.562Z,2.95
2023-05-13T16:05:04.790Z,2.47
2023-05-13T16:07:31.920Z,3.25
2023-05-13T16:09:58.675Z,2.83
2023-05-13T16:12:25.805Z,2.90
2023-05-13T16:14:52.508Z,2.90
2023-05-13T16:17:19.505Z,3.35
2023-05-13T16:19:46.648Z,2.90
2023-05-13T16:22:33.466Z,3.05
2023-05-13T16:25:02.078Z,3.45
2023-05-13T16:27:29.819Z,2.30
2023-05-13T16:29:58.004Z,3.88
2023-05-13T16:32:25.568Z,3.55
2023-05-13T16:34:52.418Z,3.92
2023-05-13T16:37:19.697Z,3.03
2023-05-13T16:39:47.146Z,3.35
2023-05-13T16:42:13.958Z,3.95
2023-05-13T16:44:41.357Z,4.90
2023-05-13T16:47:11.508Z,3.95
2023-05-13T16:49:38.370Z,4.43
2023-05-13T16:52:05.966Z,3.50
2023-05-13T16:54:33.103Z,3.88
2023-05-13T16:57:00.437Z,3.22
2023-05-13T16:59:28.432Z,3.53
2023-05-13T17:01:55.917Z,2.92
2023-05-13T17:04:22.866Z,3.17
2023-05-13T17:06:50.063Z,4.10
2023-05-13T17:09:17.293Z,3.40
2023-05-13T17:11:44.173Z,4.20
2023-05-13T17:14:11.463Z,3.20
2023-05-13T17:16:38.810Z,3.28
2023-05-13T17:19:05.656Z,2.88
2023-05-13T17:21:32.943Z,3.40
2023-05-13T17:24:00.184Z,3.08
2023-05-13T17:26:27.842Z,3.65
2023-05-13T17:28:54.932Z,3.30
2023-05-13T17:31:23.366Z,6.03
2023-05-13T17:33:50.327Z,2.97
2023-05-13T17:36:17.686Z,3.40
2023-05-13T17:38:44.421Z,3.03
2023-05-13T17:41:11.643Z,3.47
2023-05-13T17:43:38.575Z,3.20
2023-05-13T17:46:05.380Z,2.90
2023-05-13T17:48:33.277Z,2.60
2023-05-13T17:51:00.555Z,3.92
2023-05-13T17:53:27.486Z,3.13
2023-05-13T17:55:54.296Z,2.67
2023-05-13T17:58:21.123Z,2.90
2023-05-13T18:00:49.185Z,2.70
2023-05-13T18:03:17.033Z,4.43
2023-05-13T18:05:43.971Z,2.35
2023-05-13T18:08:10.987Z,3.50
2023-05-13T18:10:38.242Z,2.03
2023-05-13T18:13:05.899Z,3.55
2023-05-13T18:15:33.305Z,2.88
2023-05-13T18:18:01.092Z,2.70
2023-05-13T18:20:28.008Z,3.67
2023-05-13T18:22:54.741Z,3.20
2023-05-13T18:25:21.587Z,2.38
2023-05-13T18:27:50.451Z,2.63
2023-05-13T18:30:18.577Z,2.60
2023-05-13T18:32:46.126Z,2.40
2023-05-13T18:35:12.911Z,2.45
2023-05-13T18:37:39.619Z,2.38
2023-05-13T18:40:07.084Z,4.00
2023-05-13T18:42:33.859Z,2.42
2023-05-13T18:45:01.100Z,2.85
2023-05-13T18:47:27.934Z,2.95
2023-05-13T18:49:54.899Z,2.92
2023-05-13T18:52:21.796Z,4.40
2023-05-13T18:54:48.928Z,3.28
2023-05-13T18:57:16.562Z,1.70
2023-05-13T18:59:43.685Z,1.48
2023-05-13T19:02:10.548Z,3.35
2023-05-13T19:04:38.011Z,0.80
2023-05-13T19:07:05.273Z,0.70
2023-05-13T19:09:34.203Z,0.80
2023-05-13T19:12:01.337Z,1.47
2023-05-13T19:14:28.296Z,1.03
2023-05-13T19:16:55.735Z,1.03
2023-05-13T19:19:24.183Z,1.20
2023-05-13T19:21:51.512Z,1.00
2023-05-13T19:24:18.604Z,4.33
2023-05-13T19:26:45.624Z,2.33
2023-05-13T19:29:12.987Z,2.17
2023-05-13T19:31:40.159Z,3.63
2023-05-13T19:34:07.740Z,2.80
2023-05-13T19:36:34.583Z,2.23
2023-05-13T19:39:02.182Z,1.90
2023-05-13T19:41:29.551Z,4.13
2023-05-13T19:43:56.893Z,3.97
2023-05-13T19:46:23.804Z,4.57
2023-05-13T19:48:50.709Z,3.13
2023-05-13T19:51:18.226Z,5.00
2023-05-13T19:53:44.979Z,2.73
2023-05-13T19:56:11.848Z,3.13
2023-05-13T19:58:38.614Z,2.50
2023-05-13T20:01:05.454Z,2.37
2023-05-13T20:03:34.182Z,3.17
2023-05-13T20:06:02.165Z,4.03
2023-05-13T20:08:31.992Z,5.17
2023-05-13T20:10:59.432Z,3.33
2023-05-13T20:13:26.247Z,3.93
2023-05-13T20:15:53.251Z,5.03
2023-05-13T20:18:20.029Z,4.30
2023-05-13T20:20:48.630Z,2.30
2023-05-13T20:23:15.372Z,2.37
2023-05-13T20:25:42.282Z,3.33
2023-05-13T20:28:09.125Z,6.57
2023-05-13T20:30:35.864Z,2.80
2023-05-13T20:33:02.580Z,2.10
2023-05-13T20:35:29.402Z,3.97
2023-05-13T20:37:57.336Z,2.20
2023-05-13T20:40:24.896Z,2.70
2023-05-13T20:42:52.467Z,4.80
2023-05-13T20:45:19.693Z,2.80
2023-05-13T20:47:46.673Z,2.87
2023-05-13T20:50:14.028Z,3.73
2023-05-13T20:52:40.896Z,7.20
2023-05-13T20:55:08.172Z,2.43
2023-05-13T20:57:35.525Z,2.77
2023-05-13T21:00:02.839Z,3.97
2023-05-13T21:02:29.763Z,2.30
2023-05-13T21:04:56.677Z,4.37
2023-05-13T21:07:23.514Z,3.23
2023-05-13T21:09:50.423Z,5.80
2023-05-13T21:12:17.103Z,5.20
2023-05-13T21:14:44.407Z,4.27
2023-05-13T21:17:11.712Z,3.13
2023-05-13T21:19:38.544Z,4.33
2023-05-13T21:22:06.050Z,4.57
2023-05-13T21:24:33.128Z,3.90
2023-05-13T21:26:59.881Z,4.20
2023-05-13T21:29:26.745Z,3.70
2023-05-13T21:31:54.541Z,3.17
2023-05-13T21:34:21.601Z,2.57
2023-05-13T21:36:48.310Z,5.93
2023-05-13T21:39:15.187Z,5.07
2023-05-13T21:41:41.998Z,3.37
2023-05-13T21:44:09.009Z,3.33
2023-05-13T21:46:36.198Z,5.73
2023-05-13T21:49:03.578Z,4.53
2023-05-13T21:51:33.244Z,3.80
2023-05-13T21:54:00.011Z,4.37
2023-05-13T21:56:26.796Z,3.83
2023-05-13T21:58:53.769Z,4.10
2023-05-13T22:01:21.262Z,4.27
2023-05-13T22:03:48.545Z,7.17
2023-05-13T22:06:18.687Z,3.43
2023-05-13T22:08:45.794Z,5.13
2023-05-13T22:11:12.728Z,4.73
2023-05-13T22:13:41.456Z,5.17
2023-05-13T22:16:08.486Z,4.43
2023-05-13T22:18:36.015Z,6.87
2023-05-13T22:21:02.965Z,4.17
2023-05-13T22:23:30.046Z,4.40
2023-05-13T22:25:56.796Z,3.83
2023-05-13T22:28:23.739Z,4.70
2023-05-13T22:30:55.347Z,5.07
2023-05-13T22:33:22.229Z,4.40
2023-05-13T22:35:48.994Z,4.80
2023-05-13T22:38:16.267Z,6.70
2023-05-13T22:40:43.017Z,6.00
2023-05-13T22:43:10.148Z,9.37
2023-05-13T22:45:37.366Z,7.33
2023-05-13T22:48:04.201Z,6.50
2023-05-13T22:50:31.538Z,7.37
2023-05-13T22:52:58.296Z,7.53
2023-05-13T22:55:25.303Z,8.70
2023-05-13T22:57:52.114Z,11.40
2023-05-13T23:00:19.101Z,12.27
2023-05-13T23:02:45.900Z,6.27
2023-05-13T23:05:12.644Z,3.93
2023-05-13T23:07:39.417Z,4.07
2023-05-13T23:10:07.439Z,6.60
2023-05-13T23:12:34.421Z,14.43
2023-05-13T23:15:01.421Z,20.73
2023-05-13T23:17:28.217Z,28.43
2023-05-13T23:19:55.246Z,34.47
2023-05-13T23:22:21.953Z,30.33
2023-05-13T23:24:49.404Z,35.00
2023-05-13T23:27:16.124Z,31.50
2023-05-13T23:29:43.085Z,33.60
2023-05-13T23:32:09.914Z,39.93
2023-05-13T23:34:36.727Z,31.03
2023-05-13T23:37:15.708Z,35.80
2023-05-13T23:39:42.516Z,35.77
2023-05-13T23:42:09.247Z,41.60
2023-05-13T23:44:36.032Z,36.23
2023-05-13T23:47:02.836Z,39.53
2023-05-13T23:49:29.596Z,34.63
2023-05-13T23:51:56.730Z,34.00
2023-05-13T23:54:23.659Z,36.73
2023-05-13T23:56:51.036Z,38.90
2023-05-13T23:59:17.711Z,40.10
